Time;durP1;ratioP1;P1;durP2;ratioP2;P2;SDS_P1;SDS_P2;PMS_P1;PMS_P2;Temp;Humidity;BMP_temperature;BMP_pressure;BME280_temperature;BME280_humidity;BME280_pressure;Samples;Min_cycle;Max_cycle;Signal;HPM_P1;HPM_P2
2023/03/24 00:00:59;;;;;;;0.00;0.00;;;;;;;8.48;73.52;98046.31;7353097;19;20010;-64
2023/03/24 00:03:26;;;;;;;0.10;0.10;;;;;;;8.47;73.13;98045.47;7356112;19;20384;-64
2023/03/24 00:06:01;;;;;;;0.08;0.08;;;;;;;8.48;73.38;98031.53;7354929;19;20034;-61
2023/03/24 00:08:34;;;;;;;0.00;0.00;;;;;;;8.48;73.63;98060.13;7347767;19;20018;-64
2023/03/24 00:11:08;;;;;;;0.00;0.00;;;;;;;8.51;72.98;98062.56;7355641;19;20018;-64
2023/03/24 00:13:38;;;;;;;0.00;0.00;;;;;;;8.48;73.00;98070.53;7352705;19;20024;-64
2023/03/24 00:16:06;;;;;;;0.00;0.00;;;;;;;8.52;73.33;98074.66;7355661;19;20035;-64
2023/03/24 00:18:32;;;;;;;0.00;0.00;;;;;;;8.54;73.21;98088.41;7353982;19;20014;-64
2023/03/24 00:20:59;;;;;;;0.00;0.00;;;;;;;8.56;73.16;98081.34;7349015;19;21121;-66
2023/03/24 00:23:26;;;;;;;0.00;0.00;;;;;;;8.59;73.43;98080.34;7354931;19;20743;-64
2023/03/24 00:26:17;;;;;;;0.00;0.00;;;;;;;8.66;72.88;98092.06;7352021;19;20452;-64
2023/03/24 00:28:45;;;;;;;0.00;0.00;;;;;;;8.68;72.59;98079.00;7254310;19;2004350;-65
2023/03/24 00:31:14;;;;;;;0.00;0.00;;;;;;;8.65;72.84;98084.34;7359279;19;20566;-64
2023/03/24 00:33:41;;;;;;;0.00;0.00;;;;;;;8.70;72.38;98080.56;7361301;19;20021;-64
2023/03/24 00:36:10;;;;;;;0.00;0.00;;;;;;;8.59;72.21;98059.53;7359208;19;20030;-64
2023/03/24 00:38:37;;;;;;;0.10;0.10;;;;;;;8.75;72.05;98069.91;7340802;19;20010;-64
2023/03/24 00:41:04;;;;;;;0.00;0.00;;;;;;;8.77;72.22;98058.50;7363382;19;20030;-64
2023/03/24 00:43:30;;;;;;;;;;;;;;;8.79;72.16;98074.84;7357453;19;20819;-64
2023/03/24 00:46:00;;;;;;;0.00;0.00;;;;;;;8.81;71.82;98069.53;7362853;19;19982;-64
2023/03/24 00:48:27;;;;;;;0.10;0.10;;;;;;;8.80;71.88;98078.28;7363446;19;20014;-64
2023/03/24 00:50:54;;;;;;;0.00;0.00;;;;;;;8.69;71.81;98039.03;7363768;19;20006;-64
2023/03/24 00:53:22;;;;;;;0.00;0.00;;;;;;;8.82;72.12;98076.44;7358049;19;20093;-64
2023/03/24 00:55:48;;;;;;;0.08;0.08;;;;;;;8.83;71.90;98072.91;7361537;19;20021;-64
2023/03/24 00:58:17;;;;;;;0.10;0.10;;;;;;;8.83;71.83;98085.91;7360827;19;20006;-65
2023/03/24 01:00:51;;;;;;;0.03;0.03;;;;;;;8.83;71.79;98080.72;7363283;19;20017;-64
2023/03/24 01:03:18;;;;;;;0.03;0.03;;;;;;;8.79;71.67;98082.66;7361359;19;20022;-63
2023/03/24 01:05:47;;;;;;;0.00;0.00;;;;;;;8.81;71.48;98090.34;7363998;19;20037;-64
2023/03/24 01:08:20;;;;;;;0.00;0.00;;;;;;;8.82;71.59;98076.44;7362291;19;20003;-64
2023/03/24 01:10:52;;;;;;;0.00;0.00;;;;;;;8.77;71.83;98081.91;7361721;19;20020;-65
2023/03/24 01:13:20;;;;;;;0.00;0.00;;;;;;;8.79;71.50;98097.41;7360575;19;20015;-65
2023/03/24 01:15:46;;;;;;;0.00;0.00;;;;;;;8.74;72.13;98084.69;7359708;19;20728;-64
2023/03/24 01:18:13;;;;;;;0.00;0.00;;;;;;;8.76;72.17;98097.59;7358135;19;20017;-64
2023/03/24 01:20:40;;;;;;;0.00;0.00;;;;;;;8.76;71.92;98089.78;7360223;19;20014;-64
2023/03/24 01:23:06;;;;;;;0.00;0.00;;;;;;;8.77;71.95;98094.09;7360096;19;20413;-64
2023/03/24 01:25:37;;;;;;;0.03;0.03;;;;;;;8.79;71.81;98094.81;7359695;19;20006;-64
2023/03/24 01:28:03;;;;;;;0.00;0.00;;;;;;;8.81;71.77;98100.75;7358787;19;20546;-65
2023/03/24 01:30:29;;;;;;;0.10;0.10;;;;;;;8.68;71.97;98071.19;7360853;19;20006;-64
2023/03/24 01:32:56;;;;;;;0.00;0.00;;;;;;;8.84;71.88;98105.81;7361963;19;20459;-64
2023/03/24 01:35:24;;;;;;;0.00;0.00;;;;;;;8.87;71.69;98092.63;7357665;19;20047;-63
2023/03/24 01:37:50;;;;;;;0.00;0.00;;;;;;;8.89;71.78;98082.13;7359932;19;20053;-65
2023/03/24 01:40:25;;;;;;;0.00;0.00;;;;;;;8.93;71.93;98102.69;7356671;19;20014;-64
2023/03/24 01:42:50;;;;;;;0.00;0.00;;;;;;;8.94;71.46;98096.53;7358903;19;20018;-64
2023/03/24 01:45:38;;;;;;;0.00;0.00;;;;;;;9.00;71.77;98104.00;7357297;19;20010;-64
2023/03/24 01:48:08;;;;;;;;;;;;;;;9.03;71.19;98096.03;7254528;19;2004348;-64
2023/03/24 01:50:34;;;;;;;0.10;0.10;;;;;;;9.04;71.39;98099.44;7361717;19;20324;-64
2023/03/24 01:53:00;;;;;;;0.00;0.00;;;;;;;8.94;70.78;98075.72;7358512;19;22337;-64
2023/03/24 01:55:28;;;;;;;0.00;0.00;;;;;;;9.10;71.09;98102.53;7361628;19;20086;-64
2023/03/24 01:57:57;;;;;;;0.00;0.00;;;;;;;9.13;70.92;98108.50;7359353;19;20014;-65
2023/03/24 02:00:23;;;;;;;0.10;0.10;;;;;;;9.14;71.52;98105.81;7355748;19;20018;-64
2023/03/24 02:03:05;;;;;;;0.00;0.00;;;;;;;9.20;71.35;98104.59;7359816;19;20760;-64
2023/03/24 02:05:34;;;;;;;0.00;0.00;;;;;;;9.23;70.85;98125.28;7351769;19;20918;-64
2023/03/24 02:08:02;;;;;;;0.05;0.05;;;;;;;9.26;70.82;98099.03;7355643;19;20018;-64
2023/03/24 02:10:32;;;;;;;0.10;0.10;;;;;;;9.29;70.81;98093.66;7361648;19;20022;-64
2023/03/24 02:12:57;;;;;;;0.03;0.03;;;;;;;9.30;70.59;98087.50;7360116;19;20539;-65
2023/03/24 02:15:26;;;;;;;0.10;0.10;;;;;;;9.37;70.62;98094.00;7355938;19;20010;-64
2023/03/24 02:18:24;;;;;;;0.00;0.00;;;;;;;9.43;70.38;98101.50;7353886;19;20010;-65
2023/03/24 02:21:14;;;;;;;0.00;0.00;;;;;;;9.45;70.20;98089.19;7258344;19;2004568;-64
2023/03/24 02:23:54;;;;;;;0.10;0.10;;;;;;;9.49;70.03;98103.72;7357358;19;20013;-64
2023/03/24 02:26:32;;;;;;;0.00;0.00;;;;;;;9.50;70.26;98092.38;7359150;19;20720;-65
2023/03/24 02:29:12;;;;;;;0.00;0.00;;;;;;;9.51;69.85;98130.50;7346862;19;20025;-64
2023/03/24 02:32:19;;;;;;;0.10;0.10;;;;;;;9.53;69.72;98097.41;7359876;19;20750;-64
2023/03/24 02:35:02;;;;;;;0.08;0.08;;;;;;;9.53;69.44;98092.19;7256874;19;2004496;-65
2023/03/24 02:38:09;;;;;;;0.00;0.00;;;;;;;9.54;69.76;98101.69;7356080;19;20013;-65
2023/03/24 02:40:40;;;;;;;;;;;;;;;9.54;69.45;98100.84;7257242;19;2004502;-64
2023/03/24 02:43:23;;;;;;;0.10;0.10;;;;;;;9.48;69.56;98094.25;7357797;19;19919;-64
2023/03/24 02:45:56;;;;;;;0.05;0.05;;;;;;;9.36;69.36;98087.13;7361873;19;20009;-64
2023/03/24 02:48:40;;;;;;;0.00;0.00;;;;;;;9.48;69.57;98096.84;7356204;19;20507;-64
2023/03/24 02:51:39;;;;;;;0.10;0.10;;;;;;;9.45;69.73;98098.78;7359759;19;20010;-64
2023/03/24 02:54:20;;;;;;;0.00;0.00;;;;;;;9.42;69.63;98099.78;7256356;19;2004298;-64
2023/03/24 02:56:51;;;;;;;0.00;0.00;;;;;;;9.40;69.63;98101.66;7358594;19;20125;-65
2023/03/24 02:59:21;;;;;;;0.05;0.05;;;;;;;9.28;69.73;98073.75;7341743;19;20041;-64
2023/03/24 03:01:53;;;;;;;0.00;0.00;;;;;;;9.41;69.56;98094.69;7354364;19;20078;-65
2023/03/24 03:04:28;;;;;;;0.10;0.10;;;;;;;9.40;69.59;98112.06;7353081;19;20006;-65
2023/03/24 03:06:57;;;;;;;0.00;0.00;;;;;;;9.40;69.46;98112.06;7356030;19;20711;-65
2023/03/24 03:09:26;;;;;;;0.00;0.00;;;;;;;9.37;69.53;98099.22;7354990;19;20069;-65
2023/03/24 03:11:54;;;;;;;0.00;0.00;;;;;;;9.38;69.74;98100.94;7351647;19;20500;-64
2023/03/24 03:14:44;;;;;;;0.00;0.00;;;;;;;9.39;69.66;98091.34;7356480;19;20023;-64
2023/03/24 03:17:20;;;;;;;0.00;0.00;;;;;;;9.39;69.37;98102.59;7253816;19;2005479;-64
2023/03/24 03:19:54;;;;;;;0.00;0.00;;;;;;;9.37;69.45;98117.47;7356156;19;20011;-65
2023/03/24 03:22:27;;;;;;;0.00;0.00;;;;;;;9.40;69.40;98104.25;7346034;19;20003;-65
2023/03/24 03:24:56;;;;;;;0.00;0.00;;;;;;;9.38;69.38;98111.34;7354927;19;20014;-65
2023/03/24 03:27:30;;;;;;;0.00;0.00;;;;;;;9.39;69.26;98122.59;7356398;19;20013;-64
2023/03/24 03:30:04;;;;;;;0.00;0.00;;;;;;;9.38;69.44;98121.75;7354268;19;20108;-64
2023/03/24 03:32:34;;;;;;;0.08;0.08;;;;;;;9.36;69.28;98108.81;7351610;19;20017;-64
2023/03/24 03:35:13;;;;;;;0.00;0.00;;;;;;;9.39;69.15;98118.22;7353073;19;20377;-65
2023/03/24 03:37:45;;;;;;;0.00;0.00;;;;;;;9.38;69.28;98105.28;7355538;19;20006;-65
2023/03/24 03:40:17;;;;;;;0.00;0.00;;;;;;;9.36;69.13;98107.97;7354909;19;20336;-64
2023/03/24 03:42:44;;;;;;;0.00;0.00;;;;;;;9.33;69.36;98110.78;7352363;19;20009;-64
2023/03/24 03:45:10;;;;;;;0.10;0.10;;;;;;;9.22;68.90;98100.13;7355224;19;20039;-63
2023/03/24 03:47:36;;;;;;;0.00;0.00;;;;;;;9.30;69.01;98105.75;7354468;19;20014;-64
2023/03/24 03:50:04;;;;;;;0.10;0.10;;;;;;;9.26;68.89;98096.44;7352821;19;20034;-65
2023/03/24 03:52:30;;;;;;;0.00;0.00;;;;;;;9.37;69.20;98120.06;7353378;19;20014;-65
2023/03/24 03:54:56;;;;;;;0.08;0.08;;;;;;;9.36;68.82;98124.44;7351476;19;20770;-64
2023/03/24 03:57:22;;;;;;;0.00;0.00;;;;;;;9.38;68.85;98121.75;7354605;19;20026;-64
2023/03/24 03:59:48;;;;;;;0.00;0.00;;;;;;;9.41;68.88;98125.94;7346884;19;20492;-64
2023/03/24 04:02:51;;;;;;;0.00;0.00;;;;;;;9.44;69.10;98115.34;7355230;19;20016;-64
2023/03/24 04:05:25;;;;;;;0.00;0.00;;;;;;;9.44;68.74;98120.56;7230618;19;2005019;-65
2023/03/24 04:08:16;;;;;;;0.00;0.00;;;;;;;9.43;69.21;98109.31;7353531;19;20673;-64
2023/03/24 04:11:02;;;;;;;0.08;0.08;;;;;;;9.48;68.94;98127.25;7355732;19;20611;-65
2023/03/24 04:13:48;;;;;;;0.10;0.10;;;;;;;9.49;68.47;98114.16;7353214;19;20101;-65
2023/03/24 04:16:39;;;;;;;0.00;0.00;;;;;;;9.47;68.77;98110.78;7354493;19;20010;-65
2023/03/24 04:19:39;;;;;;;0.00;0.00;;;;;;;9.53;68.42;98109.56;7337207;19;20010;-65
2023/03/24 04:22:17;;;;;;;0.00;0.00;;;;;;;9.54;68.70;98103.44;7248121;19;2004243;-64
2023/03/24 04:24:49;;;;;;;0.00;0.00;;;;;;;9.54;68.36;98106.06;7355667;19;20526;-65
2023/03/24 04:27:29;;;;;;;0.10;0.10;;;;;;;9.59;68.59;98109.22;7352331;19;20609;-65
2023/03/24 04:30:29;;;;;;;0.00;0.00;;;;;;;9.51;68.48;98093.19;7356719;19;20018;-64
2023/03/24 04:32:57;;;;;;;0.00;0.00;;;;;;;9.65;68.45;98110.63;7252333;19;2004185;-65
2023/03/24 04:35:31;;;;;;;0.00;0.00;;;;;;;9.67;67.81;98116.56;7351934;19;21598;-65
2023/03/24 04:38:02;;;;;;;0.00;0.00;;;;;;;9.70;68.04;98108.56;7353544;19;20010;-64
2023/03/24 04:40:32;;;;;;;0.05;0.05;;;;;;;9.73;68.16;98116.19;7356593;19;20014;-65
2023/03/24 04:43:00;;;;;;;0.00;0.00;;;;;;;9.74;67.86;98136.13;7353580;19;20047;-64
2023/03/24 04:45:27;;;;;;;0.00;0.00;;;;;;;9.75;67.48;98128.22;7352928;19;20014;-64
2023/03/24 04:47:57;;;;;;;0.00;0.00;;;;;;;9.78;67.51;98127.16;7352705;19;20010;-64
2023/03/24 04:50:30;;;;;;;0.03;0.03;;;;;;;9.80;67.67;98127.94;7355787;19;20007;-64
2023/03/24 04:52:56;;;;;;;0.00;0.00;;;;;;;9.79;67.06;98113.22;7354351;19;20023;-65
2023/03/24 04:55:34;;;;;;;0.10;0.10;;;;;;;9.79;67.19;98110.63;7355341;19;20026;-65
2023/03/24 04:58:00;;;;;;;0.00;0.00;;;;;;;9.82;67.00;98136.47;7350224;19;20035;-64
2023/03/24 05:00:26;;;;;;;0.00;0.00;;;;;;;9.79;67.05;98124.50;7356320;19;22375;-64
2023/03/24 05:02:52;;;;;;;0.00;0.00;;;;;;;9.78;67.39;98115.00;7352619;19;20074;-64
2023/03/24 05:05:17;;;;;;;0.00;0.00;;;;;;;9.67;66.94;98100.94;7355682;19;20081;-65
2023/03/24 05:07:43;;;;;;;0.00;0.00;;;;;;;9.80;66.79;98114.91;7353369;19;20015;-64
2023/03/24 05:10:09;;;;;;;0.00;0.00;;;;;;;9.80;67.07;98122.72;7355961;19;20018;-65
2023/03/24 05:12:35;;;;;;;0.00;0.00;;;;;;;9.80;66.76;98127.94;7355328;19;20014;-64
2023/03/24 05:15:01;;;;;;;0.05;0.05;;;;;;;9.80;66.59;98143.56;7356695;19;20100;-64
2023/03/24 05:17:26;;;;;;;0.10;0.10;;;;;;;9.75;66.64;98119.56;7360984;19;20789;-64
2023/03/24 05:19:52;;;;;;;0.00;0.00;;;;;;;9.78;66.40;98129.78;7359959;19;20014;-64
2023/03/24 05:22:17;;;;;;;0.03;0.03;;;;;;;9.78;66.68;98132.38;7362470;19;20373;-65
2023/03/24 05:24:42;;;;;;;0.00;0.00;;;;;;;9.78;66.60;98145.41;7357669;19;20069;-65
2023/03/24 05:27:08;;;;;;;0.00;0.00;;;;;;;9.78;66.79;98141.06;7363016;19;20018;-64
2023/03/24 05:29:33;;;;;;;0.00;0.00;;;;;;;9.77;66.68;98141.97;7356172;19;20019;-65
2023/03/24 05:31:59;;;;;;;0.10;0.10;;;;;;;9.79;66.68;98136.69;7361629;19;20011;-64
2023/03/24 05:34:25;;;;;;;0.08;0.08;;;;;;;9.67;66.49;98127.81;7360801;19;20010;-65
2023/03/24 05:36:50;;;;;;;0.00;0.00;;;;;;;9.79;66.71;98144.50;7360372;19;20010;-64
2023/03/24 05:39:16;;;;;;;0.10;0.10;;;;;;;9.78;66.31;98140.19;7360153;19;20021;-64
2023/03/24 05:41:41;;;;;;;0.00;0.00;;;;;;;9.78;66.83;98140.19;7359035;19;20923;-65
2023/03/24 05:44:07;;;;;;;0.10;0.10;;;;;;;9.79;66.72;98144.50;7362518;19;20116;-65
2023/03/24 05:46:32;;;;;;;0.10;0.10;;;;;;;9.77;66.43;98143.75;7352845;19;20570;-64
2023/03/24 05:48:57;;;;;;;0.00;0.00;;;;;;;9.79;66.54;98147.13;7357339;19;20031;-65
2023/03/24 05:51:23;;;;;;;0.00;0.00;;;;;;;9.82;66.43;98178.19;7359602;19;20039;-64
2023/03/24 05:53:48;;;;;;;0.10;0.10;;;;;;;9.31;66.44;98073.56;7359693;19;20018;-65
2023/03/24 05:56:13;;;;;;;0.00;0.00;;;;;;;9.79;66.09;98136.69;7359058;19;20015;-64
2023/03/24 05:58:39;;;;;;;0.00;0.00;;;;;;;9.80;66.10;98146.19;7361296;19;20065;-64
2023/03/24 06:01:09;;;;;;;0.00;0.00;;;;;;;9.84;66.13;98150.28;7352330;19;20039;-64
2023/03/24 06:03:37;;;;;;;0.10;0.10;;;;;;;9.79;66.44;98142.75;7360189;19;20015;-64
2023/03/24 06:06:05;;;;;;;0.10;0.10;;;;;;;9.79;66.26;98139.28;7357510;19;21064;-64
2023/03/24 06:08:32;;;;;;;;;;;;;;;9.84;66.28;98145.06;7361396;19;20054;-64
2023/03/24 06:11:01;;;;;;;0.03;0.03;;;;;;;9.80;66.34;98154.00;7357041;19;19919;-65
2023/03/24 06:13:27;;;;;;;0.10;0.10;;;;;;;9.78;66.42;98155.84;7357945;19;20113;-64
2023/03/24 06:15:53;;;;;;;0.00;0.00;;;;;;;9.77;66.42;98151.56;7356766;19;20010;-66
2023/03/24 06:18:20;;;;;;;0.10;0.10;;;;;;;9.77;66.42;98148.94;7360220;19;20026;-64
2023/03/24 06:20:49;;;;;;;0.00;0.00;;;;;;;9.76;67.18;98153.34;7353993;19;20035;-63
2023/03/24 06:23:15;;;;;;;0.00;0.00;;;;;;;9.77;66.64;98159.38;7352072;19;20539;-65
2023/03/24 06:25:43;;;;;;;0.08;0.08;;;;;;;9.76;67.05;98152.50;7355204;19;20070;-64
2023/03/24 06:28:12;;;;;;;0.00;0.00;;;;;;;9.77;66.45;98149.78;7357420;19;20054;-64
2023/03/24 06:30:39;;;;;;;0.00;0.00;;;;;;;9.75;67.04;98158.66;7359790;19;20027;-65
2023/03/24 06:33:04;;;;;;;0.00;0.00;;;;;;;9.76;67.25;98157.72;7358880;19;20013;-64
2023/03/24 06:35:30;;;;;;;0.08;0.08;;;;;;;9.77;66.87;98159.38;7355655;19;20081;-65
2023/03/24 06:37:55;;;;;;;0.10;0.10;;;;;;;9.76;66.94;98153.34;7359792;19;20018;-64
2023/03/24 06:40:21;;;;;;;0.00;0.00;;;;;;;9.74;67.23;98154.38;7357560;19;20027;-65
2023/03/24 06:42:48;;;;;;;0.10;0.10;;;;;;;9.77;67.14;98154.16;7359405;19;20381;-65
2023/03/24 06:45:14;;;;;;;0.10;0.10;;;;;;;9.76;67.12;98157.72;7354760;19;20034;-64
2023/03/24 06:47:39;;;;;;;0.00;0.00;;;;;;;9.78;66.95;98158.44;7358838;19;20302;-64
2023/03/24 06:50:06;;;;;;;0.10;0.10;;;;;;;9.79;66.92;98165.34;7355244;19;20018;-64
2023/03/24 06:52:32;;;;;;;0.00;0.00;;;;;;;9.78;66.78;98166.25;7360682;19;20014;-64
2023/03/24 06:54:57;;;;;;;0.10;0.10;;;;;;;9.81;66.71;98177.34;7354734;19;20704;-64
2023/03/24 06:57:22;;;;;;;0.10;0.10;;;;;;;9.82;66.88;98172.97;7355732;19;20109;-65
2023/03/24 06:59:48;;;;;;;0.00;0.00;;;;;;;9.80;66.91;98174.84;7345429;19;20020;-64
2023/03/24 07:02:14;;;;;;;0.00;0.00;;;;;;;9.84;66.74;98181.56;7355344;19;20084;-64
2023/03/24 07:04:40;;;;;;;0.00;0.00;;;;;;;9.85;67.22;98185.84;7355650;19;20015;-64
2023/03/24 07:07:05;;;;;;;0.00;0.00;;;;;;;9.88;66.67;98188.25;7354996;19;20025;-65
2023/03/24 07:09:31;;;;;;;0.00;0.00;;;;;;;9.90;66.64;98178.56;7347732;19;20021;-64
2023/03/24 07:11:57;;;;;;;0.10;0.10;;;;;;;9.93;66.58;98180.97;7356617;19;20009;-64
2023/03/24 07:14:25;;;;;;;0.05;0.05;;;;;;;9.95;66.74;98173.91;7353821;19;20113;-64
2023/03/24 07:16:51;;;;;;;0.00;0.00;;;;;;;9.70;67.00;98137.25;7355446;19;20014;-65
2023/03/24 07:19:16;;;;;;;0.00;0.00;;;;;;;10.03;66.44;98186.47;7347806;19;20039;-65
2023/03/24 07:21:43;;;;;;;0.00;0.00;;;;;;;10.04;66.92;98177.75;7353347;19;20018;-65
2023/03/24 07:24:08;;;;;;;0.00;0.00;;;;;;;10.08;66.92;98177.44;7355061;19;20031;-64
2023/03/24 07:26:33;;;;;;;0.10;0.10;;;;;;;10.11;67.00;98190.31;7355965;19;20014;-65
2023/03/24 07:28:59;;;;;;;0.10;0.10;;;;;;;10.21;66.93;98179.31;7350698;19;20018;-64
2023/03/24 07:31:24;;;;;;;0.00;0.00;;;;;;;10.23;66.91;98196.53;7351101;19;20045;-65
2023/03/24 07:33:50;;;;;;;0.00;0.00;;;;;;;10.22;66.68;98178.38;7352686;19;20010;-65
2023/03/24 07:36:16;;;;;;;0.00;0.00;;;;;;;10.32;66.94;98190.78;7356573;19;20014;-65
2023/03/24 07:38:41;;;;;;;0.00;0.00;;;;;;;10.29;67.07;98171.88;7355133;19;20014;-64
2023/03/24 07:41:06;;;;;;;0.00;0.00;;;;;;;10.36;66.94;98178.41;7332535;19;20435;-65
2023/03/24 07:43:32;;;;;;;0.00;0.00;;;;;;;10.39;66.73;98184.28;7355752;19;20022;-65
2023/03/24 07:45:57;;;;;;;0.00;0.00;;;;;;;10.41;66.88;98186.78;7356432;19;20011;-64
2023/03/24 07:48:22;;;;;;;0.08;0.08;;;;;;;10.41;66.55;98176.34;7350615;19;20010;-64
2023/03/24 07:50:48;;;;;;;0.00;0.00;;;;;;;10.41;66.49;98175.50;7349775;19;20010;-65
2023/03/24 07:53:17;;;;;;;0.00;0.00;;;;;;;10.30;66.81;98155.31;7354341;19;20002;-65
2023/03/24 07:55:42;;;;;;;0.00;0.00;;;;;;;10.41;66.54;98186.78;7354073;19;20048;-64
2023/03/24 07:58:08;;;;;;;0.05;0.05;;;;;;;10.40;66.39;98185.09;7351660;19;20074;-65
2023/03/24 08:00:34;;;;;;;0.10;0.10;;;;;;;10.41;66.39;98176.34;7353267;19;20047;-65
2023/03/24 08:02:59;;;;;;;0.00;0.00;;;;;;;10.29;66.22;98151.88;7326901;19;20030;-65
2023/03/24 08:05:28;;;;;;;0.00;0.00;;;;;;;10.47;66.55;98191.59;7355155;19;20006;-65
2023/03/24 08:07:54;;;;;;;0.10;0.10;;;;;;;10.37;66.56;98164.41;7354012;19;20022;-64
2023/03/24 08:10:26;;;;;;;0.10;0.10;;;;;;;10.55;66.06;98173.72;7357332;19;20040;-65
2023/03/24 08:12:51;;;;;;;0.00;0.00;;;;;;;10.61;66.38;98182.94;7352915;19;20031;-64
2023/03/24 08:15:17;;;;;;;0.05;0.05;;;;;;;10.71;66.03;98185.78;7354372;19;21401;-66
2023/03/24 08:17:43;;;;;;;0.00;0.00;;;;;;;10.79;65.89;98188.72;7356417;19;20010;-65
2023/03/24 08:20:13;;;;;;;0.00;0.00;;;;;;;10.90;65.59;98199.34;7352968;19;21098;-65
2023/03/24 08:22:43;;;;;;;0.00;0.00;;;;;;;11.01;65.10;98181.22;7353640;19;20039;-65
2023/03/24 08:25:11;;;;;;;0.00;0.00;;;;;;;11.05;65.06;98185.31;7354206;19;20031;-65
2023/03/24 08:27:37;;;;;;;;;;;;;;;11.21;65.69;98160.81;7356209;19;20011;-64
2023/03/24 08:30:09;;;;;;;0.05;0.05;;;;;;;11.27;64.72;98176.06;7351961;19;20020;-65
2023/03/24 08:32:35;;;;;;;0.10;0.10;;;;;;;11.30;64.16;98142.72;7354965;19;20023;-65
2023/03/24 08:35:03;;;;;;;0.00;0.00;;;;;;;11.52;63.95;98181.34;7349003;19;20007;-65
2023/03/24 08:37:29;;;;;;;0.00;0.00;;;;;;;11.55;63.52;98175.88;7356641;19;20018;-65
2023/03/24 08:39:57;;;;;;;0.00;0.00;;;;;;;11.73;62.76;98193.91;7350319;19;20010;-65
2023/03/24 08:42:25;;;;;;;0.03;0.03;;;;;;;11.81;62.30;98188.97;7352963;19;20591;-65
2023/03/24 08:44:51;;;;;;;0.03;0.03;;;;;;;11.77;62.81;98174.47;7332467;19;20954;-64
2023/03/24 08:47:17;;;;;;;0.10;0.10;;;;;;;12.02;63.07;98194.59;7345785;19;20026;-65
2023/03/24 08:49:42;;;;;;;0.00;0.00;;;;;;;12.05;62.56;98184.72;7348651;19;20855;-65
2023/03/24 08:52:08;;;;;;;0.00;0.00;;;;;;;12.13;63.32;98187.66;7349826;19;20036;-65
2023/03/24 08:54:33;;;;;;;0.00;0.00;;;;;;;12.23;62.19;98182.63;7353684;19;20455;-64
2023/03/24 08:56:59;;;;;;;0.00;0.00;;;;;;;12.37;62.60;98190.34;7353562;19;20018;-65
2023/03/24 08:59:24;;;;;;;0.10;0.10;;;;;;;12.45;61.59;98197.66;7353029;19;20774;-64
2023/03/24 09:01:50;;;;;;;0.00;0.00;;;;;;;12.61;62.86;98207.88;7349520;19;20021;-65
2023/03/24 09:04:16;;;;;;;0.10;0.10;;;;;;;12.75;61.21;98188.56;7350428;19;20594;-62
2023/03/24 09:06:41;;;;;;;0.00;0.00;;;;;;;12.87;60.85;98185.91;7349918;19;20010;-65
2023/03/24 09:09:06;;;;;;;0.10;0.10;;;;;;;12.93;60.57;98187.25;7353076;19;20025;-65
2023/03/24 09:11:32;;;;;;;0.00;0.00;;;;;;;13.03;61.44;98193.50;7352461;19;20011;-65
2023/03/24 09:13:57;;;;;;;0.10;0.10;;;;;;;13.06;60.61;98203.75;7337283;19;20006;-65
2023/03/24 09:16:23;;;;;;;0.10;0.10;;;;;;;13.14;60.46;98195.34;7345875;19;20629;-65
2023/03/24 09:18:48;;;;;;;0.08;0.08;;;;;;;13.13;59.55;98189.28;7352168;19;20874;-65
2023/03/24 09:21:14;;;;;;;0.10;0.10;;;;;;;13.19;60.31;98198.47;7353045;19;20022;-65
2023/03/24 09:23:40;;;;;;;0.00;0.00;;;;;;;13.21;59.24;98181.69;7354624;19;20010;-65
2023/03/24 09:26:06;;;;;;;0.10;0.10;;;;;;;13.27;60.48;98200.53;7347951;19;20011;-65
2023/03/24 09:28:31;;;;;;;0.10;0.10;;;;;;;13.41;60.60;98189.88;7351712;19;20018;-65
2023/03/24 09:31:02;;;;;;;0.05;0.05;;;;;;;13.60;59.92;98177.06;7350436;19;20018;-65
2023/03/24 09:33:29;;;;;;;0.00;0.00;;;;;;;13.82;59.91;98172.81;7337385;19;20040;-65
2023/03/24 09:35:59;;;;;;;0.10;0.10;;;;;;;13.98;58.07;98171.50;7353498;19;20044;-65
2023/03/24 09:38:25;;;;;;;0.00;0.00;;;;;;;14.12;57.83;98173.06;7351299;19;20348;-65
2023/03/24 09:40:56;;;;;;;0.10;0.10;;;;;;;14.25;57.41;98171.19;7354321;19;20014;-65
2023/03/24 09:43:38;;;;;;;0.10;0.10;;;;;;;14.34;58.37;98174.84;7351916;19;21066;-65
2023/03/24 09:46:10;;;;;;;0.00;0.00;;;;;;;14.45;56.92;98163.53;7352570;19;20090;-64
2023/03/24 09:48:45;;;;;;;0.10;0.10;;;;;;;14.58;56.78;98161.63;7348857;19;20010;-65
2023/03/24 09:51:22;;;;;;;0.10;0.10;;;;;;;14.64;56.66;98176.88;7351241;19;20014;-65
2023/03/24 09:54:06;;;;;;;0.10;0.10;;;;;;;14.77;57.79;98164.44;7349802;19;21728;-65
2023/03/24 09:56:35;;;;;;;0.10;0.10;;;;;;;14.86;55.38;98157.63;7353729;19;20026;-65
2023/03/24 09:59:06;;;;;;;0.10;0.10;;;;;;;14.73;55.61;98105.22;7348160;19;20023;-65
2023/03/24 10:01:34;;;;;;;0.10;0.10;;;;;;;15.12;54.24;98150.25;7345949;19;20027;-65
2023/03/24 10:03:59;;;;;;;0.00;0.00;;;;;;;15.21;53.96;98157.38;7346324;19;20010;-65
2023/03/24 10:06:29;;;;;;;0.10;0.10;;;;;;;15.36;53.95;98149.16;7351079;19;20006;-65
2023/03/24 10:09:14;;;;;;;0.10;0.10;;;;;;;15.46;53.66;98163.22;7348549;19;20014;-65
2023/03/24 10:11:53;;;;;;;0.10;0.10;;;;;;;15.48;53.55;98142.91;7351295;19;20018;-65
2023/03/24 10:14:32;;;;;;;0.00;0.00;;;;;;;15.66;53.38;98151.91;7350857;19;20022;-65
2023/03/24 10:17:46;;;;;;;0.10;0.10;;;;;;;15.87;53.97;98136.09;7349683;19;20345;-65
2023/03/24 10:20:33;;;;;;;0.10;0.10;;;;;;;16.01;52.87;98140.16;7247296;19;2004239;-65
2023/03/24 10:23:23;;;;;;;0.10;0.10;;;;;;;16.16;53.24;98153.81;7350266;19;20051;-65
2023/03/24 10:25:54;;;;;;;0.10;0.10;;;;;;;16.14;51.05;98146.06;7350030;19;20109;-65
2023/03/24 10:28:30;;;;;;;0.10;0.10;;;;;;;16.16;50.63;98136.22;7350057;19;20991;-65
2023/03/24 10:31:00;;;;;;;0.10;0.10;;;;;;;16.03;49.19;98112.75;7348542;19;20906;-65
2023/03/24 10:33:25;;;;;;;0.10;0.10;;;;;;;15.94;49.16;98125.88;7347723;19;20018;-64
2023/03/24 10:36:08;;;;;;;0.10;0.10;;;;;;;15.87;49.73;98132.66;7349053;19;20039;-66
2023/03/24 10:38:34;;;;;;;0.10;0.10;;;;;;;15.65;48.68;98097.59;7350198;19;20007;-64
2023/03/24 10:41:01;;;;;;;0.10;0.10;;;;;;;15.72;49.09;98111.09;7350346;19;20031;-66
2023/03/24 10:43:27;;;;;;;0.00;0.00;;;;;;;15.69;50.54;98125.34;7348380;19;20034;-65
2023/03/24 10:45:56;;;;;;;0.10;0.10;;;;;;;15.77;50.60;98101.00;7347967;19;20133;-64
2023/03/24 10:48:53;;;;;;;0.10;0.10;;;;;;;15.93;50.99;98116.31;7348532;19;20466;-65
2023/03/24 10:51:25;;;;;;;;;;;;;;;16.08;49.96;98118.47;7248568;19;2004068;-65
2023/03/24 10:54:16;;;;;;;0.10;0.10;;;;;;;16.22;48.84;98122.53;7347119;19;20407;-64
2023/03/24 10:56:51;;;;;;;0.10;0.10;;;;;;;16.26;48.52;98112.56;7248012;19;2004579;-65
2023/03/24 10:59:21;;;;;;;0.10;0.10;;;;;;;16.34;47.65;98153.06;7348532;19;20019;-65
2023/03/24 11:01:47;;;;;;;0.10;0.10;;;;;;;16.33;47.39;98114.53;7349931;19;20029;-65
2023/03/24 11:04:15;;;;;;;0.00;0.00;;;;;;;16.36;47.65;98118.69;7346951;19;20014;-64
2023/03/24 11:07:04;;;;;;;0.10;0.10;;;;;;;16.40;49.54;98109.53;7351290;19;20047;-65
2023/03/24 11:09:38;;;;;;;0.10;0.10;;;;;;;16.51;50.04;98090.16;7348219;19;20015;-65
2023/03/24 11:12:04;;;;;;;0.10;0.10;;;;;;;16.66;49.10;98082.69;7346347;19;20039;-64
2023/03/24 11:14:29;;;;;;;0.10;0.10;;;;;;;16.95;49.12;98101.19;7347600;19;20160;-65
2023/03/24 11:17:22;;;;;;;0.10;0.10;;;;;;;17.28;48.80;98092.84;7348143;19;20915;-65
2023/03/24 11:19:52;;;;;;;0.10;0.10;;;;;;;17.45;48.45;98085.19;7247409;19;2004357;-65
2023/03/24 11:22:18;;;;;;;0.00;0.00;;;;;;;17.48;45.88;98085.72;7348138;19;20742;-65
2023/03/24 11:24:50;;;;;;;0.10;0.10;;;;;;;17.62;47.28;98103.75;7347403;19;21491;-65
2023/03/24 11:27:17;;;;;;;0.00;0.00;;;;;;;17.45;50.13;98096.56;7349231;19;20014;-65
2023/03/24 11:29:44;;;;;;;0.10;0.10;;;;;;;17.31;52.53;98103.13;7344755;19;20028;-64
2023/03/24 11:32:13;;;;;;;0.10;0.10;;;;;;;17.07;52.10;98082.44;7349450;19;20010;-65
2023/03/24 11:34:47;;;;;;;0.10;0.10;;;;;;;16.80;54.08;98085.78;7347007;19;20037;-65
2023/03/24 11:37:18;;;;;;;0.10;0.10;;;;;;;16.64;54.57;98088.09;7348124;19;20014;-65
2023/03/24 11:39:43;;;;;;;0.10;0.10;;;;;;;16.62;55.47;98087.41;7350282;19;20011;-65
2023/03/24 11:42:16;;;;;;;0.10;0.10;;;;;;;16.80;56.57;98084.97;7350122;19;20039;-65
2023/03/24 11:44:55;;;;;;;0.10;0.10;;;;;;;16.57;56.85;98005.31;7344061;19;20019;-65
2023/03/24 11:47:31;;;;;;;0.10;0.10;;;;;;;17.25;55.58;98048.28;7346788;19;20463;-65
2023/03/24 11:50:05;;;;;;;0.10;0.10;;;;;;;17.51;56.42;98059.06;7348893;19;20017;-65
2023/03/24 11:52:36;;;;;;;0.10;0.10;;;;;;;17.92;54.39;98054.34;7347559;19;20010;-65
2023/03/24 11:55:12;;;;;;;0.10;0.10;;;;;;;18.27;53.95;98053.63;7349035;19;20918;-65